Time,TemperatureF,DewpointF,PressureIn,WindDirection,WindDirectionDegrees,WindSpeedMPH,WindSpeedGustMPH,Humidity,HourlyPrecipIn,Conditions,Clouds,dailyrainin,SoftwareType,DateUTC
2013-10-05 00:05:00,61.8,60.0,30.01,SE,136,0.0,0.0,92,0.00,,,0.00,weatherlink.com 1.10,2013-10-05 04:05:00,
2013-10-05 00:21:00,61.7,59.0,30.01,SE,136,0.0,0.0,92,0.00,,,0.00,weatherlink.com 1.10,2013-10-05 04:21:00,
2013-10-05 00:36:00,61.2,59.0,30.01,SE,136,0.0,0.0,92,0.00,,,0.00,weatherlink.com 1.10,2013-10-05 04:36:00,
2013-10-05 00:51:00,61.3,59.0,30.01,SE,136,0.0,0.0,92,0.00,,,0.00,weatherlink.com 1.10,2013-10-05 04:51:00,
2013-10-05 01:06:00,60.9,59.0,30.01,SE,136,0.0,0.0,92,0.00,,,0.00,weatherlink.com 1.10,2013-10-05 05:06:00,
2013-10-05 01:21:00,60.7,58.0,30.01,SE,136,0.0,0.0,92,0.00,,,0.00,weatherlink.com 1.10,2013-10-05 05:21:00,
2013-10-05 01:36:00,60.6,59.0,30.01,SE,136,0.0,0.0,93,0.00,,,0.00,weatherlink.com 1.10,2013-10-05 05:36:00,
2013-10-05 01:51:00,60.4,58.0,30.01,SE,136,0.0,0.0,93,0.00,,,0.00,weatherlink.com 1.10,2013-10-05 05:51:00,
2013-10-05 02:06:00,60.1,58.0,30.01,SE,136,0.0,0.0,93,0.00,,,0.00,weatherlink.com 1.10,2013-10-05 06:06:00,
2013-10-05 02:21:00,60.5,59.0,30.01,SE,136,0.0,0.0,93,0.00,,,0.00,weatherlink.com 1.10,2013-10-05 06:21:00,
2013-10-05 02:36:00,60.2,58.0,30.01,SE,136,0.0,0.0,93,0.00,,,0.00,weatherlink.com 1.10,2013-10-05 06:36:00,
2013-10-05 02:51:00,60.6,59.0,30.01,NNE,23,0.0,0.0,94,0.00,,,0.00,weatherlink.com 1.10,2013-10-05 06:51:00,
2013-10-05 03:06:00,61.0,59.0,30.01,North,355,0.0,0.0,94,0.00,,,0.00,weatherlink.com 1.10,2013-10-05 07:06:00,
2013-10-05 03:21:00,60.7,59.0,30.01,North,353,0.0,0.0,93,0.00,,,0.00,weatherlink.com 1.10,2013-10-05 07:21:00,
2013-10-05 03:36:00,60.6,59.0,30.00,North,354,0.0,0.0,93,0.00,,,0.00,weatherlink.com 1.10,2013-10-05 07:36:00,
2013-10-05 03:51:00,60.4,58.0,30.01,North,353,0.0,0.0,93,0.00,,,0.00,weatherlink.com 1.10,2013-10-05 07:51:00,
2013-10-05 04:06:00,60.6,59.0,30.01,North,354,0.0,0.0,94,0.00,,,0.00,weatherlink.com 1.10,2013-10-05 08:06:00,
2013-10-05 04:21:00,61.2,60.0,30.01,NNE,14,0.0,0.0,94,0.00,,,0.00,weatherlink.com 1.10,2013-10-05 08:21:00,
2013-10-05 04:37:00,61.3,60.0,30.01,NNE,14,0.0,0.0,94,0.00,,,0.00,weatherlink.com 1.10,2013-10-05 08:37:00,
2013-10-05 04:51:00,-999.0,-99.9,30.01,North,-999,-999.0,-999.0,-999,0.00,,,0.00,weatherlink.com 1.10,2013-10-05 08:51:00,
2013-10-05 05:06:00,61.4,60.0,30.01,NNE,13,0.0,0.0,94,0.00,,,0.00,weatherlink.com 1.10,2013-10-05 09:06:00,
2013-10-05 05:21:00,61.3,59.0,30.01,NNE,13,0.0,0.0,93,0.00,,,0.00,weatherlink.com 1.10,2013-10-05 09:21:00,
2013-10-05 05:36:00,61.4,60.0,30.01,NNE,13,0.0,0.0,94,0.00,,,0.00,weatherlink.com 1.10,2013-10-05 09:36:00,
2013-10-05 05:51:00,61.0,59.0,30.02,NNE,13,0.0,0.0,93,0.00,,,0.00,weatherlink.com 1.10,2013-10-05 09:51:00,
2013-10-05 06:06:00,60.6,59.0,30.03,NNE,13,0.0,0.0,93,0.00,,,0.00,weatherlink.com 1.10,2013-10-05 10:06:00,
2013-10-05 06:21:00,59.7,58.0,30.03,NNE,13,0.0,0.0,93,0.00,,,0.00,weatherlink.com 1.10,2013-10-05 10:21:00,
2013-10-05 06:36:00,59.6,58.0,30.03,NNE,13,0.0,0.0,93,0.00,,,0.00,weatherlink.com 1.10,2013-10-05 10:36:00,
2013-10-05 06:51:00,59.4,57.0,30.03,NNE,13,0.0,0.0,93,0.00,,,0.00,weatherlink.com 1.10,2013-10-05 10:51:00,
2013-10-05 07:06:00,59.0,57.0,30.03,NNE,13,0.0,0.0,93,0.00,,,0.00,weatherlink.com 1.10,2013-10-05 11:06:00,
2013-10-05 07:21:00,58.9,57.0,30.03,NNE,13,0.0,0.0,93,0.00,,,0.00,weatherlink.com 1.10,2013-10-05 11:21:00,
2013-10-05 07:36:00,-999.0,-99.9,30.04,North,-999,-999.0,-999.0,-999,0.00,,,0.00,weatherlink.com 1.10,2013-10-05 11:36:00,
2013-10-05 07:51:00,-999.0,-99.9,30.04,North,-999,-999.0,-999.0,-999,0.00,,,0.00,weatherlink.com 1.10,2013-10-05 11:51:00,
2013-10-05 08:06:00,-999.0,-99.9,30.04,North,-999,-999.0,-999.0,-999,0.00,,,0.00,weatherlink.com 1.10,2013-10-05 12:06:00,
2013-10-05 08:21:00,65.0,64.0,30.04,NNE,14,0.0,0.0,95,0.00,,,0.00,weatherlink.com 1.10,2013-10-05 12:21:00,
2013-10-05 08:36:00,66.9,65.0,30.04,WNW,297,0.0,0.0,94,0.00,,,0.00,weatherlink.com 1.10,2013-10-05 12:36:00,
2013-10-05 08:51:00,68.4,66.0,30.04,NW,306,0.0,0.0,91,0.00,,,0.00,weatherlink.com 1.10,2013-10-05 12:51:00,
2013-10-05 09:07:00,69.4,67.0,30.05,NW,325,0.0,0.0,91,0.00,,,0.00,weatherlink.com 1.10,2013-10-05 13:07:00,
2013-10-05 09:22:00,71.7,69.0,30.05,NNW,338,0.0,0.0,90,0.00,,,0.00,weatherlink.com 1.10,2013-10-05 13:22:00,
2013-10-05 09:37:00,74.5,69.0,30.05,East,95,0.0,0.0,83,0.00,,,0.00,weatherlink.com 1.10,2013-10-05 13:37:00,
2013-10-05 09:52:00,75.9,70.0,30.05,SSE,161,0.0,0.0,81,0.00,,,0.00,weatherlink.com 1.10,2013-10-05 13:52:00,
2013-10-05 10:07:00,76.4,70.0,30.05,ESE,108,0.0,0.0,80,0.00,,,0.00,weatherlink.com 1.10,2013-10-05 14:07:00,
2013-10-05 10:22:00,77.3,70.0,30.05,NE,37,0.0,0.0,79,0.00,,,0.00,weatherlink.com 1.10,2013-10-05 14:22:00,
2013-10-05 10:37:00,78.1,70.0,30.05,ENE,70,0.0,0.0,76,0.00,,,0.00,weatherlink.com 1.10,2013-10-05 14:37:00,
2013-10-05 10:52:00,78.7,70.0,30.05,ESE,102,0.0,0.0,75,0.00,,,0.00,weatherlink.com 1.10,2013-10-05 14:52:00,
2013-10-05 11:07:00,79.2,70.0,30.05,NE,41,0.0,0.0,74,0.00,,,0.00,weatherlink.com 1.10,2013-10-05 15:07:00,
2013-10-05 11:22:00,79.0,69.0,30.05,ENE,57,0.0,0.0,72,0.00,,,0.00,weatherlink.com 1.10,2013-10-05 15:22:00,
2013-10-05 11:37:00,79.2,69.0,30.05,WNW,295,0.0,0.0,71,0.00,,,0.00,weatherlink.com 1.10,2013-10-05 15:37:00,
2013-10-05 11:52:00,80.9,70.0,30.04,WNW,295,0.0,0.0,69,0.00,,,0.00,weatherlink.com 1.10,2013-10-05 15:52:00,
2013-10-05 12:07:00,81.6,70.0,30.04,SSE,160,0.0,0.0,67,0.00,,,0.00,weatherlink.com 1.10,2013-10-05 16:07:00,
2013-10-05 12:22:00,82.7,70.0,30.04,West,259,0.0,0.0,65,0.00,,,0.00,weatherlink.com 1.10,2013-10-05 16:22:00,
2013-10-05 12:37:00,83.6,70.0,30.03,SSW,207,0.0,0.0,63,0.00,,,0.00,weatherlink.com 1.10,2013-10-05 16:37:00,
2013-10-05 12:52:00,84.4,71.0,30.02,ENE,75,1.0,6.0,64,0.00,,,0.00,weatherlink.com 1.10,2013-10-05 16:52:00,
2013-10-05 13:07:00,83.3,70.0,30.02,NW,304,0.0,4.0,65,0.00,,,0.00,weatherlink.com 1.10,2013-10-05 17:07:00,
2013-10-05 13:22:00,83.3,70.0,30.01,SSE,150,2.0,4.0,64,0.00,,,0.00,weatherlink.com 1.10,2013-10-05 17:22:00,
2013-10-05 13:37:00,83.2,70.0,30.00,South,174,0.0,2.0,64,0.00,,,0.00,weatherlink.com 1.10,2013-10-05 17:37:00,
2013-10-05 13:52:00,83.7,69.0,30.00,SSE,147,2.0,4.0,62,0.00,,,0.00,weatherlink.com 1.10,2013-10-05 17:52:00,
2013-10-05 14:07:00,-999.0,-99.9,30.00,North,-999,-999.0,-999.0,-999,0.00,,,0.00,weatherlink.com 1.10,2013-10-05 18:07:00,
2013-10-05 14:22:00,-999.0,-99.9,30.00,North,-999,-999.0,-999.0,-999,0.00,,,0.00,weatherlink.com 1.10,2013-10-05 18:22:00,
2013-10-05 14:37:00,-999.0,-99.9,30.00,North,-999,-999.0,-999.0,-999,0.00,,,0.00,weatherlink.com 1.10,2013-10-05 18:37:00,
2013-10-05 14:52:00,-999.0,-99.9,30.00,North,-999,-999.0,-999.0,-999,0.00,,,0.00,weatherlink.com 1.10,2013-10-05 18:52:00,
2013-10-05 15:08:00,-999.0,-99.9,30.00,North,-999,-999.0,-999.0,-999,0.00,,,0.00,weatherlink.com 1.10,2013-10-05 19:08:00,
2013-10-05 15:23:00,-999.0,-99.9,30.00,North,-999,-999.0,-999.0,-999,0.00,,,0.00,weatherlink.com 1.10,2013-10-05 19:23:00,
2013-10-05 15:38:00,-999.0,-99.9,30.00,North,-999,-999.0,-999.0,-999,0.00,,,0.00,weatherlink.com 1.10,2013-10-05 19:38:00,
2013-10-05 15:53:00,79.3,70.0,30.01,ESE,113,5.0,8.0,74,0.00,,,0.00,weatherlink.com 1.10,2013-10-05 19:53:00,
2013-10-05 16:08:00,78.3,70.0,30.01,East,99,4.0,9.0,75,0.00,,,0.00,weatherlink.com 1.10,2013-10-05 20:08:00,
2013-10-05 16:23:00,77.6,70.0,30.01,ESE,105,4.0,10.0,77,0.00,,,0.00,weatherlink.com 1.10,2013-10-05 20:23:00,
2013-10-05 16:38:00,-999.0,-99.9,30.01,North,-999,-999.0,-999.0,-999,0.00,,,0.00,weatherlink.com 1.10,2013-10-05 20:38:00,
2013-10-05 16:53:00,-999.0,-99.9,30.01,North,-999,-999.0,-999.0,-999,0.00,,,0.00,weatherlink.com 1.10,2013-10-05 20:53:00,
2013-10-05 17:08:00,75.2,69.0,30.01,East,96,4.0,8.0,80,0.00,,,0.00,weatherlink.com 1.10,2013-10-05 21:08:00,
2013-10-05 17:23:00,74.4,68.0,30.01,East,99,4.0,7.0,81,0.00,,,0.00,weatherlink.com 1.10,2013-10-05 21:23:00,
2013-10-05 17:38:00,73.2,67.0,30.02,ESE,105,3.0,8.0,82,0.00,,,0.00,weatherlink.com 1.10,2013-10-05 21:38:00,
2013-10-05 17:53:00,71.9,67.0,30.01,ESE,103,4.0,10.0,84,0.00,,,0.00,weatherlink.com 1.10,2013-10-05 21:53:00,
2013-10-05 18:08:00,70.8,67.0,30.01,ESE,114,3.0,7.0,86,0.00,,,0.00,weatherlink.com 1.10,2013-10-05 22:08:00,
2013-10-05 18:23:00,69.6,66.0,30.02,East,101,3.0,6.0,88,0.00,,,0.00,weatherlink.com 1.10,2013-10-05 22:23:00,
2013-10-05 18:38:00,68.4,65.0,30.02,East,83,4.0,7.0,89,0.00,,,0.00,weatherlink.com 1.10,2013-10-05 22:38:00,
2013-10-05 18:53:00,67.9,65.0,30.02,SE,144,3.0,6.0,90,0.00,,,0.00,weatherlink.com 1.10,2013-10-05 22:53:00,
2013-10-05 19:08:00,67.5,65.0,30.03,ESE,104,2.0,6.0,90,0.00,,,0.00,weatherlink.com 1.10,2013-10-05 23:08:00,
2013-10-05 19:23:00,67.1,65.0,30.02,SE,129,4.0,7.0,91,0.00,,,0.00,weatherlink.com 1.10,2013-10-05 23:23:00,
2013-10-05 19:38:00,67.0,64.0,30.03,East,84,5.0,7.0,91,0.00,,,0.00,weatherlink.com 1.10,2013-10-05 23:38:00,
2013-10-05 19:53:00,66.8,64.0,30.03,SE,134,4.0,7.0,91,0.00,,,0.00,weatherlink.com 1.10,2013-10-05 23:53:00,
2013-10-05 20:08:00,66.7,64.0,30.04,SSE,148,3.0,7.0,91,0.00,,,0.00,weatherlink.com 1.10,2013-10-06 00:08:00,
2013-10-05 20:23:00,66.5,64.0,30.04,SE,133,3.0,7.0,91,0.00,,,0.00,weatherlink.com 1.10,2013-10-06 00:23:00,
2013-10-05 20:38:00,66.4,64.0,30.04,SE,134,2.0,7.0,91,0.00,,,0.00,weatherlink.com 1.10,2013-10-06 00:38:00,
2013-10-05 20:53:00,66.3,64.0,30.05,SE,130,3.0,6.0,91,0.00,,,0.00,weatherlink.com 1.10,2013-10-06 00:53:00,
2013-10-05 21:08:00,66.2,64.0,30.05,ESE,108,5.0,7.0,91,0.00,,,0.00,weatherlink.com 1.10,2013-10-06 01:08:00,
2013-10-05 21:23:00,66.3,64.0,30.05,SE,141,0.0,5.0,91,0.00,,,0.00,weatherlink.com 1.10,2013-10-06 01:23:00,
2013-10-05 21:38:00,66.2,64.0,30.05,East,97,2.0,7.0,91,0.00,,,0.00,weatherlink.com 1.10,2013-10-06 01:38:00,
2013-10-05 21:53:00,66.1,64.0,30.05,East,96,2.0,6.0,91,0.00,,,0.00,weatherlink.com 1.10,2013-10-06 01:53:00,
2013-10-05 22:08:00,66.1,64.0,30.05,ESE,120,2.0,6.0,91,0.00,,,0.00,weatherlink.com 1.10,2013-10-06 02:08:00,
2013-10-05 22:23:00,66.2,64.0,30.05,ESE,113,4.0,5.0,91,0.00,,,0.00,weatherlink.com 1.10,2013-10-06 02:23:00,
2013-10-05 22:38:00,66.3,64.0,30.05,SE,146,3.0,5.0,91,0.00,,,0.00,weatherlink.com 1.10,2013-10-06 02:38:00,
2013-10-05 22:53:00,66.3,64.0,30.05,ESE,105,1.0,5.0,91,0.00,,,0.00,weatherlink.com 1.10,2013-10-06 02:53:00,
2013-10-05 23:08:00,66.4,64.0,30.05,ESE,123,3.0,4.0,91,0.00,,,0.00,weatherlink.com 1.10,2013-10-06 03:08:00,
2013-10-05 23:23:00,66.3,64.0,30.05,SE,139,2.0,5.0,91,0.00,,,0.00,weatherlink.com 1.10,2013-10-06 03:23:00,
2013-10-05 23:38:00,66.4,64.0,30.05,SE,125,2.0,5.0,91,0.00,,,0.00,weatherlink.com 1.10,2013-10-06 03:38:00,
2013-10-05 23:53:00,66.4,64.0,30.05,SE,128,1.0,4.0,91,0.00,,,0.00,weatherlink.com 1.10,2013-10-06 03:53:00,